Time;durP1;ratioP1;P1;durP2;ratioP2;P2;SDS_P1;SDS_P2;PMS_P1;PMS_P2;Temp;Humidity;BMP_temperature;BMP_pressure;BME280_temperature;BME280_humidity;BME280_pressure;Samples;Min_cycle;Max_cycle;Signal;HPM_P1;HPM_P2
2023/02/12 00:01:37;;;;;;;2.22;2.10;;;18.00;51.90;;;;;;5113004;28;20269;-54
2023/02/12 00:04:02;;;;;;;2.40;2.20;;;18.00;51.90;;;;;;5112294;28;20188;-55
2023/02/12 00:06:28;;;;;;;2.88;2.53;;;18.00;51.90;;;;;;5113401;28;20170;-54
2023/02/12 00:08:54;;;;;;;3.25;2.60;;;18.00;51.90;;;;;;5112902;28;20603;-54
2023/02/12 00:11:24;;;;;;;2.65;2.45;;;18.00;51.90;;;;;;5112513;27;20194;-52
2023/02/12 00:13:50;;;;;;;2.78;2.58;;;18.00;51.90;;;;;;5112746;28;20181;-54
2023/02/12 00:16:18;;;;;;;2.70;2.50;;;18.00;51.90;;;;;;5112983;28;20216;-55
2023/02/12 00:18:43;;;;;;;3.85;2.90;;;17.90;51.90;;;;;;5112213;28;20244;-54
2023/02/12 00:21:09;;;;;;;2.95;2.72;;;18.00;51.90;;;;;;5112976;28;20220;-55
2023/02/12 00:23:35;;;;;;;2.83;2.63;;;17.90;51.90;;;;;;5112953;28;20224;-54
2023/02/12 00:26:04;;;;;;;3.70;2.10;;;17.90;51.90;;;;;;5112436;28;20542;-57
2023/02/12 00:28:30;;;;;;;2.95;2.40;;;17.90;51.90;;;;;;5113067;28;20200;-56
2023/02/12 00:30:55;;;;;;;3.17;2.78;;;17.90;51.90;;;;;;5111880;28;20173;-53
2023/02/12 00:33:21;;;;;;;3.30;3.00;;;17.90;51.90;;;;;;5112914;28;20184;-52
2023/02/12 00:35:55;;;;;;;3.17;2.85;;;17.90;51.90;;;;;;5112869;28;20165;-54
2023/02/12 00:38:20;;;;;;;2.72;2.53;;;17.80;51.90;;;;;;5112646;28;20219;-50
2023/02/12 00:40:45;;;;;;;2.50;2.30;;;17.80;51.90;;;;;;5113000;28;20165;-51
2023/02/12 00:43:11;;;;;;;2.78;2.55;;;17.80;51.90;;;;;;5111944;28;20220;-54
2023/02/12 00:45:37;;;;;;;2.65;2.45;;;17.80;51.90;;;;;;5112148;28;20523;-53
2023/02/12 00:48:03;;;;;;;3.35;2.42;;;17.80;51.90;;;;;;5113400;28;20247;-53
2023/02/12 00:50:29;;;;;;;2.15;2.05;;;17.80;51.90;;;;;;5113259;28;20196;-55
2023/02/12 00:52:54;;;;;;;2.90;2.50;;;17.80;51.90;;;;;;5112171;28;20642;-49
2023/02/12 00:55:20;;;;;;;2.95;2.42;;;17.80;51.90;;;;;;5113121;28;20173;-53
2023/02/12 00:57:45;;;;;;;2.58;2.38;;;17.70;51.80;;;;;;5112750;28;20283;-52
2023/02/12 01:00:12;;;;;;;2.80;2.60;;;17.70;51.90;;;;;;5112630;28;20643;-55
2023/02/12 01:02:40;;;;;;;2.85;2.65;;;17.70;51.90;;;;;;5112976;28;20268;-55
2023/02/12 01:05:06;;;;;;;2.60;2.40;;;17.70;51.90;;;;;;5113220;28;20177;-54
2023/02/12 01:07:32;;;;;;;2.88;2.65;;;17.70;51.90;;;;;;5112037;28;20177;-54
2023/02/12 01:09:57;;;;;;;3.08;2.78;;;17.70;51.90;;;;;;5112995;28;20169;-51
2023/02/12 01:12:23;;;;;;;3.85;2.88;;;17.70;51.90;;;;;;5112916;28;20173;-54
2023/02/12 01:14:48;;;;;;;2.90;2.58;;;17.60;51.80;;;;;;5112151;28;20170;-54
2023/02/12 01:17:14;;;;;;;3.28;2.70;;;17.70;51.90;;;;;;5116207;28;20277;-53
2023/02/12 01:19:39;;;;;;;2.55;2.33;;;17.60;51.80;;;;;;5116577;28;20257;-53
2023/02/12 01:22:05;;;;;;;2.97;2.75;;;17.60;51.80;;;;;;5116124;28;20317;-51
2023/02/12 01:24:30;;;;;;;2.70;2.50;;;17.60;51.80;;;;;;5116756;28;20184;-51
2023/02/12 01:26:56;;;;;;;2.80;2.38;;;17.60;51.80;;;;;;5116369;28;20196;-53
2023/02/12 01:29:21;;;;;;;2.85;2.55;;;17.60;51.80;;;;;;5116139;28;20172;-51
2023/02/12 01:31:47;;;;;;;3.65;2.90;;;17.60;51.80;;;;;;5116479;28;20169;-53
2023/02/12 01:34:13;;;;;;;2.78;2.58;;;17.60;51.80;;;;;;5115990;28;20549;-54
2023/02/12 01:36:38;;;;;;;2.45;2.25;;;17.60;51.80;;;;;;5116211;28;20169;-54
2023/02/12 01:39:04;;;;;;;2.33;2.17;;;17.60;51.80;;;;;;5116490;28;20261;-55
2023/02/12 01:41:35;;;;;;;2.85;2.53;;;17.60;51.80;;;;;;5115598;28;20242;-54
2023/02/12 01:44:22;;;;;;;2.15;1.92;;;17.50;52.30;;;;;;5116282;28;20731;-53
2023/02/12 01:46:58;;;;;;;2.28;2.10;;;17.50;51.70;;;;;;5116220;28;20177;-53
2023/02/12 01:49:39;;;;;;;2.70;2.50;;;17.50;51.70;;;;;;5115463;28;20173;-49
2023/02/12 01:52:12;;;;;;;2.80;2.40;;;17.50;51.70;;;;;;5116739;28;20181;-54
2023/02/12 01:54:38;;;;;;;2.88;2.63;;;17.50;51.70;;;;;;5114922;28;20186;-54
2023/02/12 01:57:04;;;;;;;2.33;2.13;;;17.50;51.70;;;;;;5114197;28;20201;-54
2023/02/12 01:59:30;;;;;;;2.92;2.63;;;17.50;51.70;;;;;;5116166;28;20224;-52
2023/02/12 02:01:55;;;;;;;2.85;2.50;;;17.50;51.70;;;;;;5114531;28;20650;-54
2023/02/12 02:04:24;;;;;;;2.50;2.30;;;17.50;51.70;;;;;;5115113;28;20263;-54
2023/02/12 02:07:01;;;;;;;2.83;2.55;;;17.50;51.70;;;;;;5114689;28;20189;-54
2023/02/12 02:09:28;;;;;;;2.50;2.30;;;17.50;51.70;;;;;;5114189;28;20177;-54
2023/02/12 02:14:37;;;;;;;2.30;2.10;;;17.50;51.60;;;;;;5115664;28;20175;-55
2023/02/12 02:17:09;;;;;;;2.78;2.58;;;17.50;51.70;;;;;;5113632;28;20225;-53
2023/02/12 02:19:49;;;;;;;2.22;2.08;;;17.40;51.60;;;;;;5115582;28;20172;-55
2023/02/12 02:22:42;;;;;;;2.40;2.20;;;17.40;51.60;;;;;;5114659;28;20264;-54
2023/02/12 02:25:19;;;;;;;2.65;2.40;;;17.40;52.20;;;;;;5114816;28;20177;-54
2023/02/12 02:28:11;;;;;;;2.58;2.38;;;17.40;51.60;;;;;;5113807;28;20177;-54
2023/02/12 02:30:53;;;;;;;2.45;2.25;;;17.40;51.60;;;;;;5113566;28;20169;-55
2023/02/12 02:33:30;;;;;;;3.67;2.50;;;17.40;51.60;;;;;;5114677;28;20173;-54
2023/02/12 02:36:18;;;;;;;2.53;2.33;;;17.40;51.60;;;;;;5114309;28;20188;-54
2023/02/12 02:38:50;;;;;;;2.85;2.33;;;17.40;51.60;;;;;;5113158;28;20220;-54
2023/02/12 02:41:31;;;;;;;2.80;2.50;;;17.40;51.60;;;;;;5114201;28;20252;-54
2023/02/12 02:43:56;;;;;;;3.25;2.63;;;17.40;51.60;;;;;;5114001;28;20177;-54
2023/02/12 02:46:30;;;;;;;2.50;2.30;;;17.30;51.50;;;;;;5113229;28;20225;-52
2023/02/12 02:49:04;;;;;;;2.40;2.20;;;17.30;51.50;;;;;;5113905;28;20173;-55
2023/02/12 02:51:32;;;;;;;2.83;2.50;;;17.30;51.50;;;;;;5113464;28;20177;-53
2023/02/12 02:54:01;;;;;;;2.63;2.42;;;17.30;51.50;;;;;;5114011;28;20226;-53
2023/02/12 02:56:27;;;;;;;3.00;2.80;;;17.30;51.50;;;;;;5113680;28;20267;-53
2023/02/12 02:58:58;;;;;;;2.67;2.45;;;17.30;51.50;;;;;;5113744;28;20777;-53
2023/02/12 03:01:37;;;;;;;2.58;2.35;;;17.30;51.50;;;;;;5113952;28;20211;-54
2023/02/12 03:04:08;;;;;;;2.42;2.22;;;17.30;51.50;;;;;;5114992;28;20216;-53
2023/02/12 03:06:43;;;;;;;2.60;2.40;;;17.20;51.40;;;;;;5112590;28;20177;-55
2023/02/12 03:09:34;;;;;;;3.25;2.60;;;17.30;51.50;;;;;;5112831;28;20172;-50
2023/02/12 03:12:07;;;;;;;2.50;2.30;;;17.30;51.50;;;;;;5107183;28;20559;-53
2023/02/12 03:14:36;;;;;;;2.83;2.60;;;17.30;51.50;;;;;;5113631;28;20565;-53
2023/02/12 03:17:07;;;;;;;2.95;2.60;;;17.20;51.40;;;;;;5113137;28;20232;-54
2023/02/12 03:19:41;;;;;;;2.47;2.28;;;17.20;51.40;;;;;;5112655;28;20264;-53
2023/02/12 03:22:11;;;;;;;2.63;2.42;;;17.20;51.40;;;;;;5113555;28;20177;-54
2023/02/12 03:25:08;;;;;;;2.58;2.40;;;17.20;51.40;;;;;;5114234;28;20189;-54
2023/02/12 03:27:38;;;;;;;2.85;2.65;;;17.20;51.40;;;;;;5112498;28;20165;-54
2023/02/12 03:30:04;;;;;;;3.25;2.95;;;17.20;51.40;;;;;;5113091;28;20200;-51
2023/02/12 03:32:40;;;;;;;2.83;2.35;;;17.20;51.40;;;;;;5113276;28;20225;-54
2023/02/12 03:35:15;;;;;;;2.78;2.58;;;17.20;52.00;;;;;;5113738;28;20200;-54
2023/02/12 03:37:51;;;;;;;2.40;2.20;;;17.20;51.40;;;;;;5112608;28;20204;-54
2023/02/12 03:40:24;;;;;;;2.33;2.13;;;17.20;51.40;;;;;;5112844;28;20173;-54
2023/02/12 03:42:55;;;;;;;3.22;2.92;;;17.20;51.40;;;;;;5113100;28;20173;-53
2023/02/12 03:45:48;;;;;;;2.70;2.50;;;17.10;51.40;;;;;;5114338;28;20291;-53
2023/02/12 03:48:39;;;;;;;2.65;2.45;;;17.10;51.40;;;;;;5113230;28;20173;-55
2023/02/12 03:51:11;;;;;;;2.63;2.42;;;17.10;51.40;;;;;;5112994;28;20184;-54
2023/02/12 03:53:36;;;;;;;3.05;2.78;;;17.10;51.40;;;;;;5113805;28;20539;-52
2023/02/12 03:56:13;;;;;;;2.40;2.20;;;17.10;51.30;;;;;;5113146;28;20656;-53
2023/02/12 03:58:38;;;;;;;2.70;2.50;;;17.10;51.40;;;;;;5112396;28;20213;-55
2023/02/12 04:01:04;;;;;;;3.00;2.70;;;17.10;51.40;;;;;;5112560;28;20173;-54
2023/02/12 04:03:30;;;;;;;2.53;2.33;;;17.10;51.40;;;;;;5111915;28;20626;-55
2023/02/12 04:05:55;;;;;;;2.83;2.63;;;17.10;51.40;;;;;;5113422;28;20175;-54
2023/02/12 04:08:21;;;;;;;2.58;2.17;;;17.10;51.40;;;;;;5113758;28;20183;-51
2023/02/12 04:10:52;;;;;;;3.00;2.80;;;17.10;52.00;;;;;;5112717;28;20173;-53
2023/02/12 04:13:22;;;;;;;2.42;2.22;;;17.10;51.40;;;;;;5112472;28;20180;-54
2023/02/12 04:16:01;;;;;;;3.83;2.70;;;17.00;51.30;;;;;;5111750;28;20678;-53
2023/02/12 04:18:45;;;;;;;2.85;2.65;;;17.00;51.30;;;;;;5112430;28;20220;-56
2023/02/12 04:21:29;;;;;;;2.70;2.50;;;17.00;51.30;;;;;;5112329;28;20654;-54
2023/02/12 04:24:36;;;;;;;3.15;2.65;;;17.00;51.30;;;;;;5112474;28;20177;-54
2023/02/12 04:27:28;;;;;;;2.75;2.55;;;17.00;51.30;;;;;;5112259;28;20215;-53
2023/02/12 04:30:02;;;;;;;2.42;2.22;;;17.00;51.30;;;;;;5108530;28;20185;-53
2023/02/12 04:32:38;;;;;;;2.95;2.72;;;17.00;51.30;;;;;;5112282;28;20184;-54
2023/02/12 04:35:31;;;;;;;2.72;2.53;;;17.00;51.30;;;;;;5113607;28;20175;-55
2023/02/12 04:38:20;;;;;;;2.92;2.72;;;17.00;51.30;;;;;;5111516;28;20213;-55
2023/02/12 04:40:45;;;;;;;2.22;2.03;;;17.00;51.30;;;;;;5113100;28;20165;-52
2023/02/12 04:43:11;;;;;;;2.95;2.55;;;17.00;51.30;;;;;;5112252;28;20173;-54
2023/02/12 04:45:37;;;;;;;2.47;2.28;;;17.00;51.40;;;;;;5112374;28;20180;-53
2023/02/12 04:48:03;;;;;;;2.92;2.72;;;17.00;51.30;;;;;;5113358;28;20196;-54
2023/02/12 04:50:37;;;;;;;2.33;2.20;;;16.90;51.30;;;;;;5114394;28;20542;-52
2023/02/12 04:53:03;;;;;;;2.58;2.38;;;16.90;51.30;;;;;;5115546;28;20187;-49
2023/02/12 04:55:28;;;;;;;2.45;2.25;;;16.90;51.30;;;;;;5117229;28;20195;-53
2023/02/12 04:57:54;;;;;;;2.85;2.65;;;16.90;51.30;;;;;;5117100;28;20217;-54
2023/02/12 05:00:20;;;;;;;2.90;2.70;;;16.90;51.30;;;;;;5116622;28;20175;-54
2023/02/12 05:02:45;;;;;;;2.75;2.50;;;16.90;51.30;;;;;;5116973;28;20169;-55
2023/02/12 05:05:11;;;;;;;2.78;2.58;;;16.90;51.40;;;;;;5116673;28;20205;-54
2023/02/12 05:07:36;;;;;;;2.80;2.47;;;16.90;51.40;;;;;;5116762;28;20169;-53
2023/02/12 05:10:02;;;;;;;2.97;2.67;;;16.90;51.40;;;;;;5116949;28;20218;-52
2023/02/12 05:12:27;;;;;;;3.00;2.80;;;16.90;51.30;;;;;;5116493;28;20173;-51
2023/02/12 05:14:53;;;;;;;2.47;2.28;;;16.90;51.40;;;;;;5116793;28;20165;-51
2023/02/12 05:17:21;;;;;;;2.45;2.28;;;16.80;51.30;;;;;;5116697;28;20694;-52
2023/02/12 05:19:47;;;;;;;2.95;2.63;;;16.90;51.40;;;;;;5115819;28;20632;-54
2023/02/12 05:22:12;;;;;;;2.75;2.55;;;16.90;51.40;;;;;;5116704;28;20259;-53
2023/02/12 05:24:38;;;;;;;2.58;2.38;;;16.80;51.30;;;;;;5116397;28;20263;-51
2023/02/12 05:27:03;;;;;;;3.03;2.72;;;16.80;51.40;;;;;;5116187;28;20177;-53
2023/02/12 05:29:29;;;;;;;3.13;2.92;;;16.80;51.30;;;;;;5116904;28;20217;-50
2023/02/12 05:31:54;;;;;;;2.90;2.70;;;16.80;51.40;;;;;;5116240;28;20643;-50
2023/02/12 05:34:20;;;;;;;2.92;2.72;;;16.80;51.40;;;;;;5115842;28;20221;-51
2023/02/12 05:36:45;;;;;;;2.70;2.50;;;16.80;51.30;;;;;;5116237;28;20169;-50
2023/02/12 05:39:11;;;;;;;2.85;2.60;;;16.80;52.00;;;;;;5116372;28;20345;-55
2023/02/12 05:41:36;;;;;;;2.88;2.67;;;16.80;51.40;;;;;;5115410;28;20204;-54
2023/02/12 05:44:03;;;;;;;2.65;2.45;;;16.80;51.40;;;;;;5116597;28;20189;-54
2023/02/12 05:46:28;;;;;;;2.78;2.58;;;16.80;51.40;;;;;;5116551;28;20185;-50
2023/02/12 05:48:54;;;;;;;2.78;2.58;;;16.80;51.40;;;;;;5115385;28;20230;-49
2023/02/12 05:51:24;;;;;;;2.92;2.72;;;16.80;51.40;;;;;;5116230;28;20173;-53
2023/02/12 05:53:50;;;;;;;2.58;2.38;;;16.80;51.40;;;;;;5115817;28;20256;-54
2023/02/12 05:56:35;;;;;;;2.72;2.53;;;16.80;51.40;;;;;;5115705;28;20206;-55
2023/02/12 05:59:11;;;;;;;2.53;2.33;;;16.80;51.40;;;;;;5116176;28;20628;-54
2023/02/12 06:01:38;;;;;;;2.95;2.75;;;16.70;51.40;;;;;;5114186;28;20900;-54
2023/02/12 06:04:05;;;;;;;3.33;2.45;;;16.80;52.00;;;;;;5115975;28;20181;-54
2023/02/12 06:06:31;;;;;;;2.90;2.70;;;16.70;51.40;;;;;;5116200;28;20518;-52
2023/02/12 06:08:57;;;;;;;2.90;2.67;;;16.70;51.40;;;;;;5115079;28;20785;-55
2023/02/12 06:11:22;;;;;;;3.38;3.08;;;16.70;51.40;;;;;;5115999;28;20203;-52
2023/02/12 06:13:48;;;;;;;2.75;2.55;;;16.80;51.40;;;;;;5115439;28;20512;-54
2023/02/12 06:16:21;;;;;;;2.75;2.55;;;16.70;51.40;;;;;;5114857;28;20221;-55
2023/02/12 06:18:47;;;;;;;2.53;2.33;;;16.70;51.40;;;;;;5115251;28;20283;-54
2023/02/12 06:21:12;;;;;;;2.65;2.45;;;16.70;51.40;;;;;;5115865;28;20264;-54
2023/02/12 06:23:38;;;;;;;2.90;2.60;;;16.70;51.40;;;;;;5114724;28;20636;-54
2023/02/12 06:26:03;;;;;;;3.00;2.70;;;16.70;51.40;;;;;;5115741;28;20165;-54
2023/02/12 06:28:29;;;;;;;2.90;2.70;;;16.70;51.40;;;;;;5115620;28;20169;-54
2023/02/12 06:30:54;;;;;;;3.03;2.67;;;16.70;51.40;;;;;;5114534;28;20169;-55
2023/02/12 06:33:20;;;;;;;3.40;3.10;;;16.70;51.40;;;;;;5115586;28;20177;-56
2023/02/12 06:35:46;;;;;;;2.97;2.78;;;16.70;51.40;;;;;;5115260;28;20165;-54
2023/02/12 06:38:12;;;;;;;2.70;2.50;;;16.70;51.40;;;;;;5114732;28;20291;-55
2023/02/12 06:40:37;;;;;;;2.83;2.63;;;16.70;51.40;;;;;;5115528;28;20177;-55
2023/02/12 06:43:03;;;;;;;2.88;2.67;;;16.70;51.40;;;;;;5115363;28;20177;-54
2023/02/12 06:45:28;;;;;;;2.85;2.65;;;16.70;51.40;;;;;;5114609;28;20173;-55
2023/02/12 06:47:54;;;;;;;3.40;2.80;;;16.70;51.40;;;;;;5115087;28;20623;-53
2023/02/12 06:50:19;;;;;;;3.20;3.00;;;16.60;51.40;;;;;;5115061;28;20700;-53
2023/02/12 06:52:45;;;;;;;2.85;2.65;;;16.70;51.40;;;;;;5114285;28;20181;-54
2023/02/12 06:55:10;;;;;;;3.83;2.92;;;16.60;51.40;;;;;;5115090;28;20180;-53
2023/02/12 06:57:36;;;;;;;2.53;2.33;;;16.60;51.40;;;;;;5114128;28;20249;-53
2023/02/12 07:00:01;;;;;;;2.78;2.58;;;16.70;51.50;;;;;;5114857;28;20170;-53
2023/02/12 07:02:27;;;;;;;3.13;2.85;;;16.70;51.50;;;;;;5114769;28;20177;-54
2023/02/12 07:04:52;;;;;;;3.58;2.70;;;16.60;51.40;;;;;;5114036;28;20171;-52
2023/02/12 07:07:18;;;;;;;3.38;3.10;;;16.60;51.40;;;;;;5114789;28;20173;-53
2023/02/12 07:09:43;;;;;;;2.75;2.55;;;16.60;51.40;;;;;;5114498;28;20177;-53
2023/02/12 07:12:09;;;;;;;3.08;2.72;;;16.60;51.40;;;;;;5113690;28;20173;-53
2023/02/12 07:14:34;;;;;;;3.20;2.90;;;16.60;51.40;;;;;;5114566;28;20184;-54
2023/02/12 07:17:02;;;;;;;3.20;3.00;;;16.60;51.40;;;;;;5114385;28;20225;-54
2023/02/12 07:19:28;;;;;;;3.00;2.80;;;16.60;51.50;;;;;;5113976;27;20325;-54
2023/02/12 07:21:54;;;;;;;2.90;2.70;;;16.60;51.50;;;;;;5114401;28;20252;-53
2023/02/12 07:24:19;;;;;;;3.90;3.47;;;16.60;51.50;;;;;;5114596;28;20655;-52
2023/02/12 07:26:45;;;;;;;2.97;2.67;;;16.60;51.50;;;;;;5113411;28;20642;-54
2023/02/12 07:29:11;;;;;;;3.33;3.00;;;16.60;51.50;;;;;;5114526;28;20740;-55
2023/02/12 07:31:37;;;;;;;4.43;3.00;;;16.50;51.50;;;;;;5113914;28;20184;-54
2023/02/12 07:34:02;;;;;;;3.10;2.85;;;16.60;51.50;;;;;;5113740;28;20173;-54
2023/02/12 07:36:29;;;;;;;3.53;3.25;;;16.60;51.50;;;;;;5114439;28;20521;-54
2023/02/12 07:38:54;;;;;;;3.60;2.80;;;16.50;51.40;;;;;;5113910;27;20212;-55
2023/02/12 07:41:25;;;;;;;3.03;2.83;;;16.50;51.50;;;;;;5113442;28;20172;-52
2023/02/12 07:44:10;;;;;;;3.08;2.88;;;16.60;51.50;;;;;;5114060;28;20177;-53
2023/02/12 07:46:38;;;;;;;3.15;2.95;;;16.50;51.50;;;;;;5113726;28;20256;-53
2023/02/12 07:49:05;;;;;;;3.55;3.08;;;16.50;51.40;;;;;;5113103;28;20556;-48
2023/02/12 07:51:33;;;;;;;3.17;2.92;;;16.50;51.50;;;;;;5114029;28;20184;-53
2023/02/12 07:54:00;;;;;;;2.80;2.60;;;16.50;51.50;;;;;;5113241;28;20169;-49
2023/02/12 07:56:29;;;;;;;3.22;3.00;;;16.50;51.50;;;;;;5113692;28;20623;-53
2023/02/12 07:58:55;;;;;;;3.20;2.90;;;16.50;51.60;;;;;;5113653;28;20224;-52
2023/02/12 08:01:23;;;;;;;3.30;3.00;;;16.50;51.50;;;;;;5113115;28;20165;-51
2023/02/12 08:03:49;;;;;;;3.17;2.95;;;16.50;51.50;;;;;;5113502;28;20204;-54
2023/02/12 08:06:20;;;;;;;3.00;2.75;;;16.50;51.50;;;;;;5113796;28;20215;-54
2023/02/12 08:08:46;;;;;;;3.50;3.20;;;16.50;51.50;;;;;;5112694;28;20711;-54
2023/02/12 08:11:12;;;;;;;3.45;3.20;;;16.50;51.50;;;;;;5113635;28;20196;-54
2023/02/12 08:13:38;;;;;;;3.25;3.00;;;16.50;51.50;;;;;;5113555;28;20173;-50
2023/02/12 08:16:11;;;;;;;3.47;3.22;;;16.50;51.50;;;;;;5112782;28;20220;-53
2023/02/12 08:18:36;;;;;;;3.63;3.38;;;16.60;51.40;;;;;;5113229;28;20208;-50
2023/02/12 08:21:06;;;;;;;2.83;2.63;;;16.60;51.50;;;;;;5113513;28;20182;-54
2023/02/12 08:23:31;;;;;;;3.08;2.88;;;16.60;51.40;;;;;;5112586;28;20248;-52
2023/02/12 08:26:11;;;;;;;3.17;2.97;;;16.60;51.40;;;;;;5113143;28;20637;-52
2023/02/12 08:28:38;;;;;;;3.90;3.50;;;16.60;51.30;;;;;;5113377;28;20180;-53
2023/02/12 08:31:06;;;;;;;3.15;2.88;;;16.60;51.40;;;;;;5112731;28;20179;-54
2023/02/12 08:33:32;;;;;;;3.58;3.28;;;16.60;51.40;;;;;;5113338;28;20251;-52
2023/02/12 08:36:02;;;;;;;3.15;2.90;;;16.60;51.40;;;;;;5113402;28;20285;-55
2023/02/12 08:38:27;;;;;;;3.92;3.63;;;16.50;51.40;;;;;;5112724;28;20581;-54
2023/02/12 08:40:53;;;;;;;3.58;3.28;;;16.50;51.40;;;;;;5113061;28;20176;-55
2023/02/12 08:43:18;;;;;;;3.80;3.50;;;16.60;51.40;;;;;;5112564;28;20173;-54
2023/02/12 08:45:44;;;;;;;2.50;2.05;;;16.50;51.40;;;;;;5112796;28;20175;-63
2023/02/12 08:48:09;;;;;;;3.65;2.97;;;16.50;51.70;;;;;;5113139;28;20173;-64
2023/02/12 08:50:35;;;;;;;4.15;2.88;;;16.60;51.60;;;;;;5112327;28;20248;-64
2023/02/12 08:53:00;;;;;;;2.97;2.78;;;16.60;51.60;;;;;;5113118;28;20288;-63
2023/02/12 08:55:27;;;;;;;3.30;3.00;;;16.50;51.60;;;;;;5113180;28;20589;-66
2023/02/12 08:57:56;;;;;;;4.97;3.33;;;16.50;51.60;;;;;;5112128;28;20221;-68
2023/02/12 09:00:22;;;;;;;4.25;3.28;;;16.50;51.80;;;;;;5113195;28;20173;-69
2023/02/12 09:02:47;;;;;;;3.22;2.90;;;16.60;52.50;;;;;;5112771;28;20260;-68
2023/02/12 09:05:13;;;;;;;4.13;3.80;;;16.60;52.10;;;;;;5112346;28;20643;-70
2023/02/12 09:07:38;;;;;;;3.50;3.20;;;16.60;52.10;;;;;;5112876;28;20704;-64
2023/02/12 09:10:05;;;;;;;3.03;2.75;;;16.60;52.30;;;;;;5112758;28;20681;-64
2023/02/12 09:12:30;;;;;;;3.47;2.88;;;16.60;52.30;;;;;;5112160;28;20185;-62
2023/02/12 09:14:56;;;;;;;4.45;3.35;;;16.60;52.60;;;;;;5112525;28;20217;-63
2023/02/12 09:17:26;;;;;;;3.78;3.45;;;16.60;52.60;;;;;;5112538;28;20308;-63
2023/02/12 09:19:52;;;;;;;3.58;2.92;;;16.60;52.60;;;;;;5111729;28;20756;-62
2023/02/12 09:22:17;;;;;;;3.20;2.90;;;16.70;52.80;;;;;;5113069;28;20636;-62
2023/02/12 09:24:43;;;;;;;3.35;3.05;;;16.70;52.60;;;;;;5112372;28;20255;-63
2023/02/12 09:27:08;;;;;;;4.30;3.40;;;16.70;52.90;;;;;;5112237;28;20267;-63
2023/02/12 09:29:34;;;;;;;2.72;2.53;;;16.80;53.00;;;;;;5112231;28;20169;-64
2023/02/12 09:32:01;;;;;;;3.97;3.22;;;16.80;53.00;;;;;;5112734;28;20203;-64
2023/02/12 09:34:27;;;;;;;3.65;3.30;;;16.80;53.10;;;;;;5111925;28;20650;-64
2023/02/12 09:36:52;;;;;;;5.22;3.53;;;16.80;53.10;;;;;;5113421;28;20256;-64
2023/02/12 09:39:18;;;;;;;4.20;3.13;;;16.80;53.20;;;;;;5116381;28;20240;-63
2023/02/12 09:41:46;;;;;;;3.28;2.97;;;16.80;53.90;;;;;;5115487;28;20204;-63
2023/02/12 09:44:21;;;;;;;3.78;2.67;;;16.80;53.20;;;;;;5115292;28;20183;-63
2023/02/12 09:46:51;;;;;;;3.90;3.25;;;16.80;53.20;;;;;;5097828;28;20173;-63
2023/02/12 09:49:44;;;;;;;3.50;2.97;;;16.80;53.40;;;;;;5116315;28;20643;-63
2023/02/12 09:52:14;;;;;;;3.72;3.42;;;16.80;53.60;;;;;;5099990;28;20185;-64
2023/02/12 09:54:39;;;;;;;3.65;3.35;;;16.80;53.60;;;;;;5113828;28;20245;-64
2023/02/12 09:57:12;;;;;;;3.40;3.10;;;16.70;53.60;;;;;;5098111;28;20252;-65
2023/02/12 09:59:44;;;;;;;3.40;3.10;;;16.80;53.60;;;;;;5115754;28;20193;-64
2023/02/12 10:02:16;;;;;;;3.33;3.03;;;16.70;53.80;;;;;;5114129;28;20195;-65
2023/02/12 10:04:42;;;;;;;4.40;4.00;;;16.70;53.70;;;;;;5115811;28;20192;-65
2023/02/12 10:07:23;;;;;;;3.85;3.47;;;16.70;53.80;;;;;;5115873;28;20170;-64
2023/02/12 10:09:55;;;;;;;3.70;3.40;;;16.70;53.80;;;;;;5113628;28;20181;-64
2023/02/12 10:12:24;;;;;;;4.28;2.95;;;16.70;53.80;;;;;;5115962;28;20176;-64
2023/02/12 10:15:11;;;;;;;3.42;3.13;;;16.70;53.90;;;;;;5113836;28;20181;-63
2023/02/12 10:17:47;;;;;;;3.50;3.20;;;16.70;53.90;;;;;;5114076;28;20224;-64
2023/02/12 10:20:35;;;;;;;3.95;3.53;;;16.70;53.90;;;;;;5097774;28;20205;-64
2023/02/12 10:23:33;;;;;;;3.47;3.15;;;16.70;54.00;;;;;;5113958;28;20248;-63
2023/02/12 10:26:21;;;;;;;4.28;3.85;;;16.70;54.60;;;;;;5111279;28;20181;-64
2023/02/12 10:28:46;;;;;;;3.63;3.10;;;16.70;53.90;;;;;;5114130;28;20177;-64
2023/02/12 10:31:17;;;;;;;3.97;3.35;;;16.70;53.90;;;;;;5114463;28;20226;-65
2023/02/12 10:33:45;;;;;;;4.88;3.42;;;16.70;53.90;;;;;;5113926;28;20698;-67
2023/02/12 10:36:25;;;;;;;3.45;3.15;;;16.70;54.50;;;;;;5113571;28;20200;-65
2023/02/12 10:38:57;;;;;;;3.90;3.42;;;16.70;54.20;;;;;;5114953;28;20213;-64
2023/02/12 10:41:24;;;;;;;6.18;3.20;;;16.80;54.20;;;;;;5114048;28;20548;-64
2023/02/12 10:43:49;;;;;;;3.97;3.50;;;16.70;54.10;;;;;;5096341;28;20169;-63
2023/02/12 10:46:15;;;;;;;4.10;3.55;;;16.70;54.10;;;;;;5097262;28;20234;-63
2023/02/12 10:48:43;;;;;;;5.03;3.67;;;16.80;54.20;;;;;;5114527;28;20264;-63
2023/02/12 10:51:18;;;;;;;3.53;3.28;;;16.70;54.20;;;;;;5113209;28;20252;-62
2023/02/12 10:53:44;;;;;;;3.83;3.25;;;16.70;54.30;;;;;;5113663;28;20211;-64
2023/02/12 10:56:17;;;;;;;5.15;3.50;;;16.70;54.30;;;;;;5115232;28;20196;-64
2023/02/12 10:58:50;;;;;;;4.35;3.88;;;16.70;54.40;;;;;;5114106;27;20224;-63
2023/02/12 11:01:18;;;;;;;5.10;3.78;;;16.70;54.20;;;;;;5114997;27;20596;-64
2023/02/12 11:03:44;;;;;;;4.53;3.55;;;16.70;54.20;;;;;;5113249;28;20217;-63
2023/02/12 11:06:19;;;;;;;4.63;4.18;;;16.70;54.20;;;;;;5113142;28;20578;-64
2023/02/12 11:08:45;;;;;;;3.70;3.40;;;16.70;54.10;;;;;;5114456;28;20655;-63
2023/02/12 11:11:20;;;;;;;4.70;3.85;;;16.70;54.30;;;;;;5114099;28;20173;-63
2023/02/12 11:13:56;;;;;;;6.72;4.05;;;16.70;54.20;;;;;;5114580;28;20196;-64
2023/02/12 11:16:41;;;;;;;3.25;2.95;;;16.70;54.30;;;;;;5113761;28;20315;-64
2023/02/12 11:19:21;;;;;;;4.68;4.03;;;16.70;54.30;;;;;;5112676;28;20354;-62
2023/02/12 11:21:46;;;;;;;4.10;3.67;;;16.70;54.30;;;;;;5114399;28;20627;-63
2023/02/12 11:24:31;;;;;;;5.53;3.13;;;16.70;54.30;;;;;;5113170;28;20250;-62
2023/02/12 11:27:22;;;;;;;3.80;3.50;;;16.70;54.40;;;;;;5112969;28;20598;-63
2023/02/12 11:30:14;;;;;;;3.45;3.15;;;16.70;54.60;;;;;;5112788;28;20177;-64
2023/02/12 11:32:39;;;;;;;4.22;2.90;;;16.80;54.60;;;;;;5112333;28;20180;-65
2023/02/12 11:35:14;;;;;;;4.00;3.65;;;16.80;54.40;;;;;;5114223;28;20168;-64
2023/02/12 11:37:44;;;;;;;3.65;3.35;;;16.80;54.30;;;;;;5113883;28;20253;-63
2023/02/12 11:40:20;;;;;;;5.50;3.58;;;16.80;54.50;;;;;;5112717;28;20185;-64
2023/02/12 11:42:48;;;;;;;5.25;3.78;;;16.90;54.50;;;;;;5113977;28;20180;-64
2023/02/12 11:45:17;;;;;;;3.92;2.97;;;16.90;54.50;;;;;;5113982;28;20213;-64
2023/02/12 11:47:45;;;;;;;3.75;3.30;;;16.90;54.60;;;;;;5094824;28;20271;-63
2023/02/12 11:50:28;;;;;;;3.28;2.97;;;16.80;54.50;;;;;;5113926;28;20185;-63
2023/02/12 11:52:58;;;;;;;3.88;3.10;;;16.90;54.60;;;;;;5113737;28;20214;-63
2023/02/12 11:55:37;;;;;;;4.15;3.75;;;16.80;54.50;;;;;;5113479;28;20627;-63
2023/02/12 11:58:04;;;;;;;4.32;3.47;;;16.80;54.50;;;;;;5112528;28;20221;-64
2023/02/12 12:00:37;;;;;;;3.50;3.20;;;16.90;54.70;;;;;;5110953;28;20177;-64
2023/02/12 12:03:17;;;;;;;3.05;2.83;;;16.80;54.20;;;;;;5112689;28;20208;-64
2023/02/12 12:05:54;;;;;;;3.75;2.83;;;16.80;54.20;;;;;;5113321;27;20176;-64
2023/02/12 12:08:24;;;;;;;3.13;2.83;;;16.80;54.30;;;;;;5094914;28;20630;-63
2023/02/12 12:10:57;;;;;;;3.92;3.08;;;16.80;54.30;;;;;;5112094;28;20185;-63
2023/02/12 12:13:26;;;;;;;4.60;3.03;;;16.80;54.60;;;;;;5112607;28;20173;-63
2023/02/12 12:21:40;;;;;;;2.80;2.60;;;16.80;54.40;;;;;;5112497;28;20344;-63
2023/02/12 12:24:14;;;;;;;3.20;2.90;;;16.80;54.60;;;;;;5112036;28;20605;-62
2023/02/12 12:26:39;;;;;;;2.85;2.65;;;16.80;54.50;;;;;;5112004;28;20218;-63
2023/02/12 12:29:11;;;;;;;3.20;2.90;;;16.80;54.70;;;;;;5094599;28;20181;-63
2023/02/12 12:31:42;;;;;;;3.72;2.88;;;16.80;54.80;;;;;;5111793;28;20183;-65
2023/02/12 12:34:18;;;;;;;3.10;2.90;;;16.80;54.70;;;;;;5112285;28;20215;-65
2023/02/12 12:37:02;;;;;;;4.20;3.15;;;16.80;54.70;;;;;;5111215;28;20176;-65
2023/02/12 12:39:48;;;;;;;4.25;3.03;;;16.80;56.20;;;;;;5113209;28;20212;-64
2023/02/12 12:42:35;;;;;;;3.58;3.08;;;16.80;55.10;;;;;;5111690;28;20180;-64
2023/02/12 12:45:22;;;;;;;3.95;3.22;;;16.80;55.00;;;;;;5096269;28;20238;-64
2023/02/12 12:48:15;;;;;;;3.53;3.22;;;16.80;55.10;;;;;;5112912;28;20172;-64
2023/02/12 12:51:18;;;;;;;3.50;3.20;;;16.70;55.20;;;;;;5111942;28;20185;-63
2023/02/12 12:54:05;;;;;;;3.78;3.10;;;16.80;55.20;;;;;;5112897;28;20179;-62
2023/02/12 12:56:43;;;;;;;3.58;3.28;;;16.70;55.20;;;;;;5112276;28;20256;-64
2023/02/12 12:59:16;;;;;;;4.10;3.50;;;16.70;55.00;;;;;;5113215;28;20209;-65
2023/02/12 13:02:03;;;;;;;2.92;2.72;;;16.80;55.30;;;;;;5112791;28;20750;-65
2023/02/12 13:04:36;;;;;;;3.28;2.80;;;16.80;55.30;;;;;;5111308;28;20176;-65
2023/02/12 13:07:33;;;;;;;4.28;3.80;;;16.80;55.40;;;;;;5111814;28;20260;-63
2023/02/12 13:10:16;;;;;;;4.35;3.95;;;16.80;55.50;;;;;;5113044;28;20209;-63
2023/02/12 13:13:02;;;;;;;3.88;3.45;;;16.90;55.60;;;;;;5114722;28;20627;-63
2023/02/12 13:15:49;;;;;;;3.38;3.17;;;16.90;55.60;;;;;;5116547;28;20535;-63